Time;durP1;ratioP1;P1;durP2;ratioP2;P2;SDS_P1;SDS_P2;PMS_P1;PMS_P2;Temp;Humidity;BMP_temperature;BMP_pressure;BME280_temperature;BME280_humidity;BME280_pressure;Samples;Min_cycle;Max_cycle;Signal;HPM_P1;HPM_P2
2023/04/08 00:00:29;;;;;;;8.48;5.90;;;;;;;16.00;40.07;100416.09;5091990;28;20062;-70
2023/04/08 00:02:58;;;;;;;7.43;5.60;;;;;;;15.98;40.10;100412.66;5091892;28;20083;-70
2023/04/08 00:05:28;;;;;;;8.35;5.55;;;;;;;15.96;40.21;100414.63;5092319;28;20044;-71
2023/04/08 00:07:56;;;;;;;7.85;5.50;;;;;;;15.95;40.08;100412.91;5092093;28;20048;-70
2023/04/08 00:10:25;;;;;;;7.63;5.60;;;;;;;15.93;40.01;100416.72;5091987;28;20476;-70
2023/04/08 00:12:54;;;;;;;6.45;5.03;;;;;;;15.90;40.02;100407.03;5091932;28;20044;-69
2023/04/08 00:15:22;;;;;;;7.38;5.43;;;;;;;15.88;40.19;100414.38;5091734;28;20043;-70
2023/04/08 00:17:53;;;;;;;7.97;6.00;;;;;;;15.89;40.10;100416.09;5091949;28;20432;-70
2023/04/08 00:20:24;;;;;;;7.93;5.82;;;;;;;15.86;40.12;100412.81;5091896;28;20071;-71
2023/04/08 00:22:54;;;;;;;8.77;5.88;;;;;;;15.83;40.17;100411.22;5091869;28;20407;-70
2023/04/08 00:25:22;;;;;;;7.38;5.47;;;;;;;15.81;40.13;100407.78;5091701;28;20051;-70
2023/04/08 00:27:52;;;;;;;6.85;5.45;;;;;;;15.82;40.11;100422.94;5091529;28;20511;-72
2023/04/08 00:30:21;;;;;;;7.45;5.47;;;;;;;15.80;40.20;100427.56;5091561;28;20056;-71
2023/04/08 00:32:50;;;;;;;8.75;5.93;;;;;;;15.77;40.11;100414.38;5091739;28;20059;-71
2023/04/08 00:35:18;;;;;;;7.88;6.03;;;;;;;15.77;40.24;100417.06;5091549;28;20520;-72
2023/04/08 00:37:46;;;;;;;7.50;5.63;;;;;;;15.72;40.17;100411.19;5091748;28;20051;-72
2023/04/08 00:40:16;;;;;;;8.07;5.50;;;;;;;15.75;40.22;100416.34;5091718;28;20558;-72
2023/04/08 00:42:44;;;;;;;7.55;5.68;;;;;;;15.72;40.16;100417.41;5091591;28;20121;-72
2023/04/08 00:45:13;;;;;;;8.75;6.05;;;;;;;15.71;40.13;100420.22;5091775;28;20048;-71
2023/04/08 00:47:42;;;;;;;8.55;6.15;;;;;;;15.69;40.15;100416.81;5091664;28;20087;-72
2023/04/08 00:50:11;;;;;;;7.40;5.75;;;;;;;15.68;40.22;100426.72;5091662;28;20044;-71
2023/04/08 00:52:40;;;;;;;8.02;5.70;;;;;;;15.67;40.20;100421.47;5091519;28;20489;-71
2023/04/08 00:55:09;;;;;;;8.27;6.00;;;;;;;15.66;40.23;100430.50;5091333;28;20489;-71
2023/04/08 00:57:38;;;;;;;9.88;6.47;;;;;;;15.63;40.25;100417.28;5091589;28;20055;-71
2023/04/08 01:00:10;;;;;;;7.45;5.50;;;;;;;15.63;40.30;100428.03;5091774;28;20048;-71
2023/04/08 01:02:48;;;;;;;8.05;5.60;;;;;;;15.62;40.39;100420.97;5093886;28;20066;-72
2023/04/08 01:05:28;;;;;;;7.50;5.43;;;;;;;15.61;40.29;100424.63;5095336;28;20131;-70
2023/04/08 01:07:59;;;;;;;6.82;5.30;;;;;;;15.57;40.38;100423.13;5095401;28;20048;-71
2023/04/08 01:10:31;;;;;;;7.90;5.95;;;;;;;15.56;40.27;100418.72;5095308;28;20044;-70
2023/04/08 01:13:05;;;;;;;7.88;5.63;;;;;;;15.55;40.33;100422.41;5095208;28;20138;-70
2023/04/08 01:15:36;;;;;;;8.13;6.32;;;;;;;15.53;40.24;100427.88;5095086;28;20115;-71
2023/04/08 01:18:07;;;;;;;7.82;5.63;;;;;;;15.54;40.25;100426.03;5094802;28;20131;-70
2023/04/08 01:20:36;;;;;;;7.43;5.63;;;;;;;15.53;40.40;100427.03;5095148;28;20052;-70
2023/04/08 01:23:11;;;;;;;8.20;5.82;;;;;;;15.51;40.31;100426.28;5095041;28;20043;-70
2023/04/08 01:25:39;;;;;;;8.02;5.82;;;;;;;15.48;40.50;100423.84;5094728;28;20048;-70
2023/04/08 01:28:12;;;;;;;8.23;5.80;;;;;;;15.49;40.33;100425.56;5094786;28;21213;-71
2023/04/08 01:30:42;;;;;;;7.78;5.32;;;;;;;15.46;40.32;100429.34;5094778;28;20083;-72
2023/04/08 01:33:13;;;;;;;7.70;5.53;;;;;;;15.46;40.35;100426.66;5094919;28;20040;-70
2023/04/08 01:35:41;;;;;;;8.13;5.55;;;;;;;15.44;40.34;100421.41;5094757;28;20048;-71
2023/04/08 01:38:16;;;;;;;7.57;5.40;;;;;;;15.42;40.43;100420.66;5094609;28;20047;-71
2023/04/08 01:40:47;;;;;;;7.50;5.43;;;;;;;15.42;40.31;100427.84;5094704;28;20047;-71
2023/04/08 01:43:17;;;;;;;7.75;5.55;;;;;;;15.40;40.37;100425.28;5094553;28;20051;-71
2023/04/08 01:45:47;;;;;;;7.95;5.68;;;;;;;15.39;40.49;100426.28;5094731;28;20451;-71
2023/04/08 01:48:16;;;;;;;8.90;5.95;;;;;;;15.38;40.41;100426.41;5094700;28;20052;-71
2023/04/08 01:50:45;;;;;;;8.32;6.20;;;;;;;15.36;40.39;100418.47;5094492;28;20055;-71
2023/04/08 01:53:13;;;;;;;7.40;5.15;;;;;;;15.36;40.49;100422.97;5094386;28;20072;-70
2023/04/08 01:55:43;;;;;;;7.82;5.72;;;;;;;15.34;40.62;100420.38;5094158;28;20044;-71
2023/04/08 01:58:17;;;;;;;7.32;5.70;;;;;;;15.33;40.51;100415.97;5094434;28;20052;-71
2023/04/08 02:00:47;;;;;;;7.45;5.13;;;;;;;15.33;40.48;100415.97;5094213;28;20060;-71
2023/04/08 02:03:18;;;;;;;7.32;5.72;;;;;;;15.31;40.47;100417.09;5094300;28;20048;-71
2023/04/08 02:05:47;;;;;;;7.95;6.10;;;;;;;15.30;40.53;100415.38;5094261;28;20044;-71
2023/04/08 02:08:15;;;;;;;8.70;5.93;;;;;;;15.29;40.51;100417.22;5094086;28;20048;-70
2023/04/08 02:10:43;;;;;;;7.97;6.03;;;;;;;15.29;40.47;100421.72;5094293;28;20101;-71
2023/04/08 02:13:12;;;;;;;7.63;5.72;;;;;;;15.27;40.60;100421.00;5093981;28;20098;-72
2023/04/08 02:15:47;;;;;;;7.00;5.30;;;;;;;15.27;40.53;100415.63;5094053;28;20411;-70
2023/04/08 02:18:24;;;;;;;7.85;5.32;;;;;;;15.25;40.46;100417.53;5093994;28;20052;-71
2023/04/08 02:20:57;;;;;;;7.93;5.55;;;;;;;15.22;40.46;100423.16;5093823;28;20109;-70
2023/04/08 02:23:29;;;;;;;7.93;5.78;;;;;;;15.21;40.44;100419.63;5093868;28;20676;-70
2023/04/08 02:25:57;;;;;;;8.02;5.75;;;;;;;15.21;40.62;100411.56;5093823;28;20047;-71
2023/04/08 02:28:26;;;;;;;8.65;5.35;;;;;;;15.19;40.53;100416.22;5093515;28;20056;-71
2023/04/08 02:30:59;;;;;;;7.53;5.88;;;;;;;15.18;40.58;100418.03;5093725;28;20094;-71
2023/04/08 02:33:29;;;;;;;8.50;6.17;;;;;;;15.17;40.89;100420.84;5093580;28;20459;-71
2023/04/08 02:35:57;;;;;;;8.20;5.93;;;;;;;15.16;40.45;100414.63;5093705;28;20044;-71
2023/04/08 02:38:28;;;;;;;8.90;5.68;;;;;;;15.12;40.54;100405.06;5093553;28;20091;-71
2023/04/08 02:40:57;;;;;;;7.55;5.88;;;;;;;15.14;40.71;100416.53;5093444;28;20044;-72
2023/04/08 02:43:30;;;;;;;8.60;5.70;;;;;;;15.14;40.76;100421.91;5093462;28;20043;-72
2023/04/08 02:46:02;;;;;;;9.27;6.07;;;;;;;15.12;40.72;100417.63;5093190;28;20048;-71
2023/04/08 02:48:32;;;;;;;7.63;5.63;;;;;;;15.11;40.56;100415.94;5093275;28;20512;-72
2023/04/08 02:51:00;;;;;;;7.53;5.70;;;;;;;15.10;40.73;100417.75;5093462;28;20109;-73
2023/04/08 02:53:29;;;;;;;7.82;5.72;;;;;;;15.09;40.76;100412.50;5093331;28;20052;-72
2023/04/08 02:55:57;;;;;;;7.00;5.30;;;;;;;15.08;40.76;100418.84;5093087;28;20070;-70
2023/04/08 02:58:25;;;;;;;7.10;5.45;;;;;;;15.06;40.75;100415.44;5092962;28;20052;-71
2023/04/08 03:00:54;;;;;;;7.57;5.60;;;;;;;15.06;40.74;100415.44;5093176;28;20047;-71
2023/04/08 03:03:26;;;;;;;7.32;5.65;;;;;;;15.05;40.63;100413.69;5093133;28;20054;-70
2023/04/08 03:05:57;;;;;;;8.38;5.65;;;;;;;15.04;40.78;100417.38;5093051;28;20083;-71
2023/04/08 03:08:25;;;;;;;7.95;5.70;;;;;;;15.03;40.64;100423.72;5092891;28;20489;-72
2023/04/08 03:10:53;;;;;;;7.93;5.55;;;;;;;14.99;40.69;100408.81;5092833;28;20055;-71
2023/04/08 03:13:22;;;;;;;8.02;5.35;;;;;;;14.99;40.80;100411.50;5092809;28;20091;-71
2023/04/08 03:15:50;;;;;;;8.25;5.97;;;;;;;15.00;40.73;100419.44;5093012;28;20087;-71
2023/04/08 03:18:18;;;;;;;7.63;5.40;;;;;;;14.98;40.82;100420.53;5092922;28;20048;-71
2023/04/08 03:20:46;;;;;;;8.35;6.13;;;;;;;14.96;40.74;100417.09;5092817;28;20044;-70
2023/04/08 03:23:16;;;;;;;7.05;5.55;;;;;;;14.96;40.86;100426.03;5092709;28;20052;-72
2023/04/08 03:25:44;;;;;;;7.28;5.40;;;;;;;14.96;40.78;100428.72;5091923;28;20139;-72
2023/04/08 03:28:12;;;;;;;7.32;5.47;;;;;;;14.97;40.73;100429.56;5092564;28;20052;-72
2023/04/08 03:30:47;;;;;;;7.93;5.97;;;;;;;14.95;40.83;100436.88;5092763;28;20044;-70
2023/04/08 03:33:15;;;;;;;6.63;5.40;;;;;;;14.91;40.89;100430.88;5092605;28;20044;-70
2023/04/08 03:35:43;;;;;;;7.93;5.95;;;;;;;14.93;40.73;100436.13;5092446;28;20051;-71
2023/04/08 03:38:11;;;;;;;7.93;5.60;;;;;;;14.91;40.85;100430.03;5092226;28;20578;-70
2023/04/08 03:40:41;;;;;;;8.50;5.70;;;;;;;14.91;40.78;100432.72;5092507;28;20067;-72
2023/04/08 03:43:10;;;;;;;7.53;5.50;;;;;;;14.89;40.79;100433.69;5092412;28;20135;-70
2023/04/08 03:45:38;;;;;;;7.10;5.25;;;;;;;14.87;40.88;100441.00;5092363;28;20088;-71
2023/04/08 03:48:06;;;;;;;6.65;5.05;;;;;;;14.86;40.72;100439.28;5092226;28;20128;-71
2023/04/08 03:50:35;;;;;;;7.15;5.20;;;;;;;14.84;40.80;100438.53;5092050;28;20090;-71
2023/04/08 03:53:03;;;;;;;7.65;5.47;;;;;;;14.85;40.95;100442.91;5092375;28;20047;-71
2023/04/08 03:55:31;;;;;;;6.93;5.07;;;;;;;14.84;40.78;100446.59;5092024;28;20074;-70
2023/04/08 03:58:01;;;;;;;7.50;5.55;;;;;;;14.81;40.89;100445.97;5092040;28;20040;-71
2023/04/08 04:00:30;;;;;;;7.28;5.60;;;;;;;14.81;40.80;100449.50;5092113;28;20522;-70
2023/04/08 04:02:59;;;;;;;7.03;5.07;;;;;;;14.80;40.83;100444.25;5092041;28;20094;-71
2023/04/08 04:05:27;;;;;;;6.75;4.80;;;;;;;14.80;40.95;100453.16;5091815;28;20048;-70
2023/04/08 04:07:57;;;;;;;7.57;5.45;;;;;;;14.80;40.93;100458.53;5092215;28;20052;-71
2023/04/08 04:10:25;;;;;;;7.68;5.25;;;;;;;14.78;40.94;100457.81;5092061;28;20044;-71
2023/04/08 04:12:53;;;;;;;6.90;5.13;;;;;;;14.76;40.96;100459.72;5092156;28;20055;-71
2023/04/08 04:15:23;;;;;;;7.18;5.00;;;;;;;14.78;40.95;100462.31;5091953;28;20468;-71
2023/04/08 04:17:51;;;;;;;7.40;5.43;;;;;;;14.74;40.90;100466.19;5091749;28;20048;-71
2023/04/08 04:20:20;;;;;;;7.07;4.90;;;;;;;14.76;40.91;100467.78;5092045;28;20055;-71
2023/04/08 04:22:51;;;;;;;7.03;5.30;;;;;;;14.74;40.86;100464.34;5091816;28;20626;-71
2023/04/08 04:25:20;;;;;;;7.57;5.15;;;;;;;14.74;41.00;100464.34;5091731;28;20054;-71
2023/04/08 04:27:48;;;;;;;7.10;4.80;;;;;;;14.69;41.05;100452.25;5091878;28;20043;-71
2023/04/08 04:30:18;;;;;;;7.25;5.35;;;;;;;14.72;40.89;100463.63;5091563;28;20063;-71
2023/04/08 04:32:47;;;;;;;6.88;5.07;;;;;;;14.71;41.03;100467.28;5091897;28;20070;-71
2023/04/08 04:35:16;;;;;;;7.05;5.20;;;;;;;14.71;40.90;100463.72;5091607;28;20481;-71
2023/04/08 04:37:44;;;;;;;7.30;5.10;;;;;;;14.69;41.09;100469.22;5094352;28;20054;-70
2023/04/08 04:40:12;;;;;;;6.57;4.50;;;;;;;14.72;41.04;100468.97;5095749;28;20051;-71
2023/04/08 04:42:41;;;;;;;6.93;5.00;;;;;;;14.73;41.18;100465.31;5095794;28;20050;-70
2023/04/08 04:45:10;;;;;;;6.72;4.72;;;;;;;14.80;41.12;100469.28;5095603;28;20040;-70
2023/04/08 04:47:38;;;;;;;5.90;4.18;;;;;;;14.88;41.31;100474.94;5095800;28;20067;-69
2023/04/08 04:50:08;;;;;;;6.78;4.28;;;;;;;14.96;41.27;100470.81;5095679;28;20048;-69
2023/04/08 04:52:37;;;;;;;6.10;4.03;;;;;;;15.04;41.36;100474.63;5095444;28;20044;-70
2023/04/08 04:55:06;;;;;;;5.68;4.00;;;;;;;15.11;41.31;100477.72;5095620;28;20044;-71
2023/04/08 04:57:34;;;;;;;6.00;4.50;;;;;;;15.18;41.42;100471.78;5095364;28;20042;-70
2023/04/08 05:00:03;;;;;;;6.00;4.18;;;;;;;15.27;41.23;100478.28;5095230;28;20396;-70
2023/04/08 05:02:33;;;;;;;6.03;4.55;;;;;;;15.36;41.19;100479.41;5095422;28;20048;-70
2023/04/08 05:05:01;;;;;;;5.97;4.47;;;;;;;15.46;41.13;100480.44;5095434;28;20055;-70
2023/04/08 05:07:31;;;;;;;6.18;4.38;;;;;;;15.53;41.16;100480.78;5095423;28;20044;-70
2023/04/08 05:10:03;;;;;;;6.03;4.30;;;;;;;15.61;41.22;100473.88;5095983;28;20048;-70
2023/04/08 05:12:33;;;;;;;5.82;4.10;;;;;;;15.68;41.07;100475.13;5095459;28;20088;-70
2023/04/08 05:15:01;;;;;;;5.70;4.10;;;;;;;15.78;41.12;100477.94;5095351;28;20044;-70
2023/04/08 05:17:29;;;;;;;5.85;3.90;;;;;;;15.85;40.97;100479.19;5096768;28;20052;-71
2023/04/08 05:19:58;;;;;;;5.70;4.07;;;;;;;15.95;41.09;100487.41;5097660;28;20047;-70
2023/04/08 05:22:27;;;;;;;5.75;3.95;;;;;;;16.03;41.11;100490.34;5096862;28;20058;-71
2023/04/08 05:24:56;;;;;;;5.13;3.60;;;;;;;16.12;40.90;100492.31;5094916;28;20044;-71
2023/04/08 05:27:24;;;;;;;5.53;3.67;;;;;;;16.23;40.86;100494.13;5095057;28;20056;-71
2023/04/08 05:29:53;;;;;;;5.55;3.78;;;;;;;16.31;40.84;100495.25;5094838;28;20056;-71
2023/04/08 05:32:21;;;;;;;5.20;3.67;;;;;;;16.37;40.70;100490.31;5095210;28;20044;-71
2023/04/08 05:34:50;;;;;;;4.88;3.72;;;;;;;16.48;40.70;100498.38;5094921;28;20066;-70
2023/04/08 05:37:18;;;;;;;5.47;4.22;;;;;;;16.54;40.63;100498.75;5094619;28;20040;-70
2023/04/08 05:39:48;;;;;;;5.00;3.83;;;;;;;16.62;40.59;100508.06;5095006;28;20093;-69
2023/04/08 05:42:18;;;;;;;4.95;3.67;;;;;;;16.62;40.64;100498.13;5094734;28;20068;-70
2023/04/08 05:44:46;;;;;;;4.60;3.50;;;;;;;16.67;40.48;100505.81;5094706;28;20089;-70
2023/04/08 05:47:15;;;;;;;5.30;3.60;;;;;;;16.70;40.49;100506.50;5094079;28;20101;-70
2023/04/08 05:49:43;;;;;;;5.07;3.88;;;;;;;16.70;40.50;100505.63;5094485;28;20040;-70
2023/04/08 05:52:11;;;;;;;5.75;4.00;;;;;;;16.71;40.32;100507.34;5094781;28;20052;-70
2023/04/08 05:54:43;;;;;;;5.22;3.60;;;;;;;16.69;40.39;100504.75;5094602;28;20070;-71
2023/04/08 05:57:11;;;;;;;5.15;3.58;;;;;;;16.69;40.32;100510.13;5094581;28;20044;-71
2023/04/08 05:59:40;;;;;;;5.78;3.90;;;;;;;16.69;40.36;100503.91;5094419;28;20082;-70
2023/04/08 06:02:08;;;;;;;5.53;3.78;;;;;;;16.68;40.33;100515.63;5094427;28;20076;-70
2023/04/08 06:04:36;;;;;;;5.28;3.78;;;;;;;16.64;40.31;100506.09;5094136;28;20404;-70
2023/04/08 06:07:07;;;;;;;5.55;3.83;;;;;;;16.65;40.38;100515.88;5094197;28;20083;-70
2023/04/08 06:09:36;;;;;;;5.82;4.03;;;;;;;16.62;40.25;100517.00;5094114;28;20047;-70
2023/04/08 06:12:05;;;;;;;5.00;3.40;;;;;;;16.59;40.26;100520.75;5094224;28;20044;-71
2023/04/08 06:14:33;;;;;;;5.03;3.70;;;;;;;16.59;40.36;100518.06;5094023;28;20561;-70
2023/04/08 06:17:03;;;;;;;6.75;3.63;;;;;;;16.57;40.36;100521.88;5093919;28;20076;-70
2023/04/08 06:19:31;;;;;;;5.25;3.60;;;;;;;16.52;40.34;100519.56;5094011;28;20143;-71
2023/04/08 06:22:00;;;;;;;5.30;3.78;;;;;;;16.51;40.43;100525.94;5093968;28;20048;-70
2023/04/08 06:24:29;;;;;;;5.35;3.72;;;;;;;16.48;40.44;100523.47;5093996;28;20089;-72
2023/04/08 06:26:57;;;;;;;5.15;3.63;;;;;;;16.47;40.36;100534.38;5093780;28;20125;-71
2023/04/08 06:29:25;;;;;;;5.45;3.92;;;;;;;16.43;40.22;100531.06;5093440;28;20136;-70
2023/04/08 06:31:53;;;;;;;5.72;4.15;;;;;;;16.42;40.30;100542.84;5093936;28;20427;-71
2023/04/08 06:34:23;;;;;;;5.65;4.18;;;;;;;16.39;40.41;100540.38;5093756;28;20051;-71
2023/04/08 06:36:51;;;;;;;6.57;4.30;;;;;;;16.34;40.40;100537.19;5093533;28;20048;-71
2023/04/08 06:39:20;;;;;;;5.82;4.10;;;;;;;16.33;40.31;100535.50;5093367;28;20503;-71
2023/04/08 06:41:48;;;;;;;6.22;4.40;;;;;;;16.31;40.19;100543.69;5093528;28;20087;-71
2023/04/08 06:44:16;;;;;;;6.85;4.50;;;;;;;16.29;40.24;100550.16;5093321;28;20044;-71
2023/04/08 06:46:44;;;;;;;6.38;4.53;;;;;;;16.24;40.23;100547.84;5093557;28;20424;-70
2023/04/08 06:49:13;;;;;;;5.78;4.00;;;;;;;16.23;40.24;100550.66;5093474;28;20090;-70
2023/04/08 06:51:42;;;;;;;5.55;4.35;;;;;;;16.19;40.27;100538.41;5093359;28;20040;-72
2023/04/08 06:54:10;;;;;;;5.93;4.15;;;;;;;16.17;40.21;100553.81;5093345;28;20047;-70
2023/04/08 06:56:38;;;;;;;5.90;4.25;;;;;;;16.15;40.28;100555.78;5093083;28;20496;-71
2023/04/08 06:59:09;;;;;;;5.78;4.10;;;;;;;16.11;40.27;100554.28;5092057;28;20497;-71
2023/04/08 07:01:38;;;;;;;5.80;4.20;;;;;;;16.07;40.29;100548.31;5093133;28;20052;-70
2023/04/08 07:04:06;;;;;;;6.60;4.15;;;;;;;16.05;40.39;100546.72;5092881;28;20052;-70
2023/04/08 07:06:34;;;;;;;6.40;4.22;;;;;;;16.02;40.24;100551.38;5092914;28;20058;-71
2023/04/08 07:09:04;;;;;;;5.90;4.10;;;;;;;15.99;40.30;100548.91;5092799;28;20493;-70
2023/04/08 07:11:32;;;;;;;6.32;4.18;;;;;;;15.98;40.44;100552.56;5092760;28;20070;-71
2023/04/08 07:14:01;;;;;;;6.28;4.25;;;;;;;15.94;40.46;100547.56;5092753;28;20540;-70
2023/04/08 07:16:29;;;;;;;5.75;3.75;;;;;;;15.94;40.39;100563.69;5093097;28;20040;-71
2023/04/08 07:18:58;;;;;;;5.57;4.13;;;;;;;15.91;40.48;100562.09;5092801;28;20091;-70
2023/04/08 07:21:26;;;;;;;5.95;3.83;;;;;;;15.90;40.37;100567.59;5092518;28;20148;-68
2023/04/08 07:23:54;;;;;;;6.20;4.25;;;;;;;15.87;40.42;100566.00;5092584;28;20048;-69
2023/04/08 07:26:24;;;;;;;5.10;3.70;;;;;;;15.85;40.48;100572.47;5094972;28;20105;-66
2023/04/08 07:28:52;;;;;;;6.35;4.30;;;;;;;15.83;40.50;100579.81;5092615;28;20062;-69
2023/04/08 07:31:20;;;;;;;6.07;4.00;;;;;;;15.82;40.51;100572.69;5092705;28;20063;-70
2023/04/08 07:33:48;;;;;;;5.55;4.05;;;;;;;15.78;40.52;100574.78;5092425;28;20540;-70
2023/04/08 07:36:17;;;;;;;6.13;4.20;;;;;;;15.77;40.46;100581.13;5092382;28;20416;-69
2023/04/08 07:38:45;;;;;;;5.68;4.00;;;;;;;15.75;40.48;100585.78;5092472;28;20044;-69
2023/04/08 07:41:13;;;;;;;6.82;4.20;;;;;;;15.73;40.51;100590.41;5092443;28;20075;-69
2023/04/08 07:43:43;;;;;;;7.22;4.25;;;;;;;15.71;40.72;100589.66;5092492;28;20468;-70
2023/04/08 07:46:11;;;;;;;6.50;4.20;;;;;;;15.70;40.56;100593.31;5092369;28;20044;-70
2023/04/08 07:48:40;;;;;;;6.35;4.10;;;;;;;15.66;40.56;100599.91;5092192;28;20044;-69
2023/04/08 07:51:09;;;;;;;5.57;3.85;;;;;;;15.65;40.61;100599.06;5092125;28;20079;-71
2023/04/08 07:53:39;;;;;;;5.70;4.20;;;;;;;15.64;40.61;100604.56;5092266;28;20105;-69
2023/04/08 07:56:12;;;;;;;6.20;4.20;;;;;;;15.63;40.62;100602.81;5092208;28;20056;-69
2023/04/08 07:58:40;;;;;;;6.65;4.22;;;;;;;15.58;40.53;100592.41;5092199;28;20040;-70
2023/04/08 08:01:21;;;;;;;6.55;4.40;;;;;;;15.57;40.63;100606.81;5091805;28;20552;-64
2023/04/08 08:03:50;;;;;;;5.93;4.10;;;;;;;15.55;40.65;100605.22;5092084;28;20051;-69
2023/04/08 08:06:19;;;;;;;5.97;4.28;;;;;;;15.55;40.71;100607.91;5091995;28;20044;-68
2023/04/08 08:08:48;;;;;;;5.90;3.85;;;;;;;15.55;40.76;100613.28;5091863;28;20040;-69
2023/04/08 08:11:16;;;;;;;6.03;4.20;;;;;;;15.52;40.77;100611.66;5091764;28;20078;-69
2023/04/08 08:13:44;;;;;;;5.05;3.65;;;;;;;15.50;40.84;100605.56;5091875;28;20048;-69
2023/04/08 08:16:12;;;;;;;5.40;3.78;;;;;;;15.49;40.86;100605.66;5091666;28;20048;-65
2023/04/08 08:18:42;;;;;;;5.88;4.00;;;;;;;15.48;40.80;100612.03;5091530;28;20489;-66
2023/04/08 08:21:10;;;;;;;5.32;3.88;;;;;;;15.46;40.86;100614.84;5091739;28;20060;-68
2023/04/08 08:23:43;;;;;;;6.75;4.20;;;;;;;15.44;40.88;100612.25;5090356;28;20078;-69
2023/04/08 08:26:11;;;;;;;4.95;3.70;;;;;;;15.42;41.01;100614.19;5090344;28;20055;-68
2023/04/08 08:28:40;;;;;;;5.88;4.20;;;;;;;15.41;41.01;100620.53;5090611;28;20117;-68
2023/04/08 08:31:08;;;;;;;5.72;4.30;;;;;;;15.38;40.93;100618.09;5091295;28;20109;-68
2023/04/08 08:33:36;;;;;;;5.80;3.78;;;;;;;15.39;41.07;100617.09;5090887;28;20050;-68
2023/04/08 08:36:06;;;;;;;5.82;4.05;;;;;;;15.38;41.06;100626.16;5090928;28;20051;-68
2023/04/08 08:38:34;;;;;;;5.88;4.05;;;;;;;15.36;41.03;100630.78;5091289;28;20097;-68
2023/04/08 08:41:03;;;;;;;6.05;4.18;;;;;;;15.36;41.03;100627.25;5091419;28;20048;-68
2023/04/08 08:43:32;;;;;;;5.63;3.60;;;;;;;15.35;41.08;100633.59;5091369;28;20051;-68
2023/04/08 08:46:17;;;;;;;5.60;3.92;;;;;;;15.34;41.01;100638.06;5075765;28;20044;-68
2023/04/08 08:48:46;;;;;;;5.35;3.90;;;;;;;15.33;41.19;100635.50;5091518;28;20097;-68
2023/04/08 08:51:15;;;;;;;5.95;4.10;;;;;;;15.30;41.01;100633.91;5091525;28;20080;-68
2023/04/08 08:53:44;;;;;;;5.18;3.78;;;;;;;15.31;41.12;100640.16;5091373;28;20460;-68
2023/04/08 08:56:12;;;;;;;7.28;4.00;;;;;;;15.29;41.16;100642.94;5091587;28;20048;-68
2023/04/08 08:58:46;;;;;;;;;;;;;;;15.29;41.13;100640.25;5092224;28;20136;-69
2023/04/08 09:01:31;;;;;;;5.55;3.70;;;;;;;15.27;41.21;100646.72;5091430;28;19971;-67
2023/04/08 09:04:08;;;;;;;6.03;4.20;;;;;;;15.25;41.17;100646.84;5091342;28;20060;-68
2023/04/08 09:06:38;;;;;;;5.07;3.53;;;;;;;15.26;41.19;100645.88;5091362;28;20048;-68
2023/04/08 09:09:09;;;;;;;5.82;4.10;;;;;;;15.25;41.11;100654.91;5091493;28;20068;-69
2023/04/08 09:11:39;;;;;;;5.70;3.83;;;;;;;15.21;41.25;100648.03;5091339;28;20054;-69
2023/04/08 09:14:18;;;;;;;5.57;3.95;;;;;;;15.24;41.33;100652.31;5091325;28;20094;-67
2023/04/08 09:16:47;;;;;;;8.73;4.15;;;;;;;15.23;41.33;100654.13;5091112;28;20481;-68
2023/04/08 09:19:15;;;;;;;6.40;4.00;;;;;;;15.20;41.25;100651.69;5091384;28;20048;-69
2023/04/08 09:21:45;;;;;;;5.57;4.03;;;;;;;15.22;41.17;100665.00;5091247;28;20101;-68
2023/04/08 09:24:28;;;;;;;5.70;4.28;;;;;;;15.21;41.21;100671.34;5094383;28;20040;-68
2023/04/08 09:26:56;;;;;;;6.13;4.00;;;;;;;15.19;41.35;100668.78;5095087;28;20051;-70
2023/04/08 09:29:26;;;;;;;5.95;3.88;;;;;;;15.19;41.30;100671.47;5094647;28;20055;-70
2023/04/08 09:32:03;;;;;;;5.97;3.65;;;;;;;15.17;41.30;100674.28;5094977;28;20134;-69
2023/04/08 09:34:33;;;;;;;5.32;3.80;;;;;;;15.17;41.29;100678.78;5094977;28;20059;-69
2023/04/08 09:37:02;;;;;;;5.53;3.60;;;;;;;15.18;41.29;100675.13;5094826;28;20040;-69
2023/04/08 09:39:31;;;;;;;6.65;4.10;;;;;;;15.15;41.54;100672.66;5094913;28;20362;-69
2023/04/08 09:42:05;;;;;;;6.28;3.95;;;;;;;15.15;41.32;100675.34;5094514;28;20079;-69
2023/04/08 09:44:36;;;;;;;5.60;3.97;;;;;;;15.17;41.25;100681.47;5094462;28;20481;-69
2023/04/08 09:47:10;;;;;;;5.05;3.85;;;;;;;15.16;41.22;100683.31;5094484;28;20048;-71
2023/04/08 09:49:42;;;;;;;5.55;3.95;;;;;;;15.17;41.31;100686.84;5094412;28;20069;-69
2023/04/08 09:52:15;;;;;;;5.93;3.95;;;;;;;15.15;41.21;100683.38;5094467;28;20051;-69
2023/04/08 09:54:54;;;;;;;5.13;3.60;;;;;;;15.14;41.29;100679.00;5094438;28;20109;-73
2023/04/08 09:57:32;;;;;;;5.78;3.75;;;;;;;15.16;41.45;100687.81;5094454;28;20123;-71
2023/04/08 10:00:05;;;;;;;6.55;3.70;;;;;;;15.16;41.50;100682.44;5094557;28;20062;-65
2023/04/08 10:02:55;;;;;;;6.50;3.50;;;;;;;15.21;41.79;100680.28;5094153;28;20052;-64
2023/04/08 10:05:25;;;;;;;8.60;3.88;;;;;;;15.43;44.88;100682.25;5094373;28;20070;-64
2023/04/08 10:07:56;;;;;;;6.38;3.92;;;;;;;15.62;45.16;100671.00;5094267;28;20055;-65
2023/04/08 10:10:26;;;;;;;9.45;4.53;;;;;;;15.83;45.48;100682.88;5094405;28;20077;-61
2023/04/08 10:12:55;;;;;;;9.40;4.35;;;;;;;16.00;45.88;100679.75;5094172;28;20410;-61
2023/04/08 10:15:26;;;;;;;8.10;4.60;;;;;;;16.14;46.24;100677.84;5093995;28;20052;-62
2023/04/08 10:17:54;;;;;;;9.13;4.75;;;;;;;16.31;47.30;100682.81;5094161;28;20055;-62
2023/04/08 10:20:42;;;;;;;8.85;4.93;;;;;;;16.50;46.84;100688.47;5093905;28;20515;-63
2023/04/08 10:23:13;;;;;;;8.35;5.15;;;;;;;16.66;47.09;100684.56;5093816;28;20397;-62
2023/04/08 10:25:43;;;;;;;10.27;4.75;;;;;;;16.83;46.92;100676.06;5093754;28;20127;-62
2023/04/08 10:28:25;;;;;;;10.32;5.00;;;;;;;16.98;46.64;100677.50;5093862;28;20048;-63
2023/04/08 10:30:55;;;;;;;7.35;4.78;;;;;;;17.09;46.11;100677.53;5094131;28;20048;-63
2023/04/08 10:33:31;;;;;;;10.13;4.80;;;;;;;17.20;46.02;100679.34;5093490;28;20040;-63
2023/04/08 10:36:04;;;;;;;8.98;4.63;;;;;;;17.29;45.95;100677.75;5093538;28;20044;-63
2023/04/08 10:38:34;;;;;;;6.40;4.20;;;;;;;17.38;45.91;100668.91;5093360;28;20094;-63
2023/04/08 10:41:03;;;;;;;9.68;5.00;;;;;;;17.50;45.60;100670.59;5093603;28;20781;-63
2023/04/08 10:43:32;;;;;;;7.00;4.15;;;;;;;17.58;45.19;100676.22;5093519;28;20059;-64
2023/04/08 10:46:01;;;;;;;7.30;4.07;;;;;;;17.67;45.35;100675.44;5093706;28;20040;-63
2023/04/08 10:48:29;;;;;;;8.43;4.20;;;;;;;17.74;45.29;100675.81;5094472;28;20048;-63
2023/04/08 10:50:59;;;;;;;7.10;4.60;;;;;;;17.86;45.22;100673.94;5093447;28;20050;-65
2023/04/08 10:53:28;;;;;;;8.25;4.55;;;;;;;17.92;44.96;100673.41;5093557;28;20052;-63
2023/04/08 10:56:06;;;;;;;10.13;4.70;;;;;;;18.00;44.95;100676.31;5093528;28;20055;-63
2023/04/08 10:58:35;;;;;;;8.10;4.20;;;;;;;18.07;45.12;100688.31;5094162;28;20048;-67
2023/04/08 11:01:05;;;;;;;8.20;4.35;;;;;;;18.12;45.02;100685.22;5113842;28;20401;-62
2023/04/08 11:03:34;;;;;;;9.82;4.43;;;;;;;18.15;45.02;100680.44;5114773;28;20162;-63
2023/04/08 11:06:03;;;;;;;8.05;4.30;;;;;;;18.21;45.03;100679.91;5096886;28;20048;-65
2023/04/08 11:08:33;;;;;;;7.13;4.07;;;;;;;18.24;44.63;100678.81;5094724;28;20051;-62
2023/04/08 11:11:01;;;;;;;8.88;4.30;;;;;;;18.28;45.02;100675.69;5094792;28;20138;-63
2023/04/08 11:13:31;;;;;;;6.82;4.18;;;;;;;18.33;44.79;100677.13;5094997;28;20154;-63
2023/04/08 11:16:01;;;;;;;6.82;4.10;;;;;;;18.36;44.83;100666.94;5095116;28;20130;-62
2023/04/08 11:18:31;;;;;;;6.72;4.18;;;;;;;18.43;44.95;100680.75;5094804;28;20130;-63
2023/04/08 11:21:00;;;;;;;7.65;3.95;;;;;;;18.48;44.30;100675.81;5095396;28;20044;-62
2023/04/08 11:23:29;;;;;;;8.23;4.13;;;;;;;18.55;44.42;100677.88;5094648;28;20516;-65
2023/04/08 11:26:04;;;;;;;6.78;4.30;;;;;;;18.61;44.19;100676.47;5094488;28;20044;-65
2023/04/08 11:28:35;;;;;;;7.25;3.75;;;;;;;18.68;44.11;100683.06;5094209;28;20413;-63
2023/04/08 11:31:04;;;;;;;6.90;4.03;;;;;;;18.72;43.86;100679.13;5094519;28;20476;-63
2023/04/08 11:33:34;;;;;;;7.38;4.07;;;;;;;18.78;43.98;100683.97;5095015;28;20097;-63
2023/04/08 11:36:04;;;;;;;5.70;3.75;;;;;;;18.81;43.75;100683.69;5095329;28;20044;-64